createdAt,value
2023-04-15T17:28:57.451Z,11.48
2023-04-15T17:31:23.811Z,11.77
2023-04-15T17:34:00.129Z,11.88
2023-04-15T17:36:33.139Z,11.85
2023-04-15T17:38:59.435Z,12.07
2023-04-15T17:41:25.712Z,9.80
2023-04-15T17:43:51.966Z,11.25
2023-04-15T17:46:18.296Z,10.40
2023-04-15T17:48:45.673Z,11.65
2023-04-15T17:51:11.986Z,9.32
2023-04-15T17:53:38.355Z,9.70
2023-04-15T17:56:05.020Z,10.15
2023-04-15T17:58:31.342Z,10.65
2023-04-15T18:00:57.649Z,11.50
2023-04-15T18:03:24.052Z,11.82
2023-04-15T18:05:50.498Z,12.80
2023-04-15T18:08:16.794Z,12.32
2023-04-15T18:10:45.151Z,11.32
2023-04-15T18:13:11.406Z,11.75
2023-04-15T18:15:37.775Z,13.50
2023-04-15T18:18:04.304Z,11.80
2023-04-15T18:20:30.658Z,12.30
2023-04-15T18:22:56.908Z,13.05
2023-04-15T18:25:23.241Z,13.55
2023-04-15T18:27:49.558Z,12.70
2023-04-15T18:30:15.849Z,13.50
2023-04-15T18:32:43.444Z,13.73
2023-04-15T18:35:09.900Z,11.85
2023-04-15T18:37:36.219Z,12.93
2023-04-15T18:40:02.611Z,13.60
2023-04-15T18:42:28.918Z,13.05
2023-04-15T18:44:55.313Z,13.45
2023-04-15T18:47:21.623Z,14.15
2023-04-15T18:49:47.901Z,14.07
2023-04-15T18:52:14.242Z,13.93
2023-04-15T18:54:40.642Z,14.35
2023-04-15T18:57:07.041Z,14.48
2023-04-15T18:59:33.929Z,14.85
2023-04-15T19:02:00.597Z,16.08
2023-04-15T19:04:27.271Z,15.80
2023-04-15T19:06:53.632Z,14.10
2023-04-15T19:09:19.936Z,15.27
2023-04-15T19:11:46.238Z,15.85
2023-04-15T19:14:12.563Z,16.15
2023-04-15T19:16:38.932Z,17.10
2023-04-15T19:19:05.994Z,16.25
2023-04-15T19:21:32.538Z,19.10
2023-04-15T19:23:59.920Z,17.60
2023-04-15T19:28:52.541Z,17.65
2023-04-15T19:31:19.829Z,17.20
2023-04-15T19:33:46.182Z,17.00
2023-04-15T19:36:12.473Z,18.77
2023-04-15T19:38:38.782Z,16.60
2023-04-15T19:41:05.095Z,17.27
2023-04-15T19:43:32.597Z,17.00
2023-04-15T19:45:59.234Z,17.00
2023-04-15T19:48:25.599Z,17.52
2023-04-15T19:50:51.914Z,17.23
2023-04-15T19:53:18.237Z,16.67
2023-04-15T19:55:44.552Z,17.52
2023-04-15T19:58:10.939Z,16.65
2023-04-15T20:00:37.280Z,16.95
2023-04-15T20:03:04.397Z,16.10
2023-04-15T20:05:30.817Z,16.20
2023-04-15T20:07:59.313Z,17.02
2023-04-15T20:10:26.168Z,16.98
2023-04-15T20:12:53.393Z,16.25
2023-04-15T20:17:46.410Z,16.10
2023-04-15T20:20:12.876Z,16.13
2023-04-15T20:22:39.207Z,16.67
2023-04-15T20:25:06.010Z,15.88
2023-04-15T20:27:32.304Z,17.00
2023-04-15T20:29:58.600Z,16.88
2023-04-15T20:32:24.985Z,16.88
2023-04-15T20:34:51.362Z,17.60
2023-04-15T20:37:17.769Z,16.40
2023-04-15T20:39:44.168Z,15.95
2023-04-15T20:42:10.469Z,17.33
2023-04-15T20:44:37.635Z,17.02
2023-04-15T20:47:05.332Z,17.50
2023-04-15T20:49:35.360Z,16.63
2023-04-15T20:52:02.306Z,17.23
2023-04-15T20:54:28.722Z,17.83
2023-04-15T20:56:55.850Z,16.48
2023-04-15T20:59:22.141Z,16.30
2023-04-15T21:01:48.458Z,16.65
2023-04-15T21:04:14.794Z,16.77
2023-04-15T21:06:41.070Z,16.15
2023-04-15T21:09:07.578Z,16.95
2023-04-15T21:11:53.121Z,18.95
2023-04-15T21:14:20.284Z,15.90
2023-04-15T21:16:46.787Z,16.95
2023-04-15T21:19:13.160Z,16.85
2023-04-15T21:21:39.517Z,16.52
2023-04-15T21:24:05.928Z,17.42
2023-04-15T21:26:32.345Z,16.63
2023-04-15T21:28:58.633Z,17.40
2023-04-15T21:31:25.247Z,17.15
2023-04-15T21:33:51.586Z,17.33
2023-04-15T21:36:17.885Z,17.33
2023-04-15T21:38:44.153Z,18.25
